Acapulco G. Alvarez, Mexico

9:09 PM CST on February 13, 2016 (GMT -0600)
Acapulco AMK | | Change Station
CLOSE
Current Station
Personal Weather Station
Location: Acapulco, GUERRERO
Elevation: 23 ft
Nearby Weather Stations

Elev 23 ft 16.78 °N, 99.81 °W | Updated 1 minute ago

Clear
Clear
82.4 °F
Feels Like 87 °F
N
0.0
Wind Variable Wind from West
Gusts 0.0 mph

Today
High -- | Low -- °F
--% Chance of Precip.
Yesterday
High -- | Low -- °F
Precip. -- in
Pressure 29.85 in
Visibility 7.0 miles
Clouds Clear
Heat Index 87 °F
Dew Point 70 °F
Humidity 67%
Rainfall 0.00 in
Snow Depth Not available.
7:06 AM 6:40 PM
Waxing Crescent, 37% visible
METAR MMAA 140242Z 00000KT 7SM SKC 25/19 A2987 RMK SLP108 52023 955 HZY
Pressure 29.85 in
Visibility 7.0 miles
Clouds Clear
Heat Index 87 °F
Dew Point 70 °F
Humidity 67%
Rainfall 0.00 in
Snow Depth Not available.
7:06 AM 6:40 PM
Waxing Crescent, 37% visible
METAR MMAA 140242Z 00000KT 7SM SKC 25/19 A2987 RMK SLP108 52023 955 HZY

10-Day Weather Forecast

No radar image for this location.
×

Almanac

Astronomy

Feb. 13, 2016 Rise Set
Actual Time
Civil Twilight
Nautical Twilight
Astronomical Twilight
Moon
Length of Visible Light
Length of Day
Tomorrow will be .
, % of the Moon is Illuminated

Today's Extremes

Country Highs Country Lows

Community

WunderPhotos

Upload Photos

1,892,731 photos uploaded!

WunderBlog® & News

Nearby

Air Quality

  Air Quality AQ Index Pollutant
Not available.

Snow Depth

Station Depth Elevation

Earthquake Activity

City Distance Mag. Time & Date
Minimum magnitude displayed is 2.5.

Coastal Water Temperatures

Place Temperature

Stations

Nearby Weather Stations

Station Location Temp. Windchill Dew Point Humidity Wind Precip. Elev Updated Type